createdAt,value
2018-12-19T00:02:21.836Z,100612.70
2018-12-19T00:04:49.312Z,100604.48
2018-12-19T00:07:16.568Z,100591.52
2018-12-19T00:09:43.804Z,100583.36
2018-12-19T00:12:11.046Z,100585.11
2018-12-19T00:14:38.313Z,100579.02
2018-12-19T00:17:05.529Z,100578.14
2018-12-19T00:19:32.773Z,100562.56
2018-12-19T00:21:59.988Z,100560.86
2018-12-19T00:24:27.255Z,100549.66
2018-12-19T00:26:54.468Z,100559.19
2018-12-19T00:29:21.713Z,100559.58
2018-12-19T00:31:49.117Z,100550.03
2018-12-19T00:34:16.416Z,100544.46
2018-12-19T00:36:43.662Z,100537.93
2018-12-19T00:39:10.890Z,100536.24
2018-12-19T00:41:38.128Z,100528.91
2018-12-19T00:44:05.409Z,100519.81
2018-12-19T00:46:32.666Z,100511.63
2018-12-19T00:48:59.907Z,100506.88
2018-12-19T00:51:27.156Z,100514.17
2018-12-19T00:53:54.389Z,100504.27
2018-12-19T00:56:21.642Z,100503.42
2018-12-19T00:58:48.944Z,100510.80
2018-12-19T01:01:16.263Z,100511.66
2018-12-19T01:03:43.498Z,100503.88
2018-12-19T01:06:10.982Z,100507.38
2018-12-19T01:08:38.276Z,100505.56
2018-12-19T01:11:05.563Z,100503.40
2018-12-19T01:13:32.839Z,100499.54
2018-12-19T01:16:00.099Z,100503.87
2018-12-19T01:18:27.366Z,100497.84
2018-12-19T01:20:54.604Z,100498.25
2018-12-19T01:23:21.835Z,100499.98
2018-12-19T01:25:49.073Z,100490.00
2018-12-19T01:28:16.308Z,100496.11
2018-12-19T01:30:43.553Z,100504.31
2018-12-19T01:33:10.781Z,100512.08
2018-12-19T01:35:38.406Z,100512.57
2018-12-19T01:38:05.924Z,100515.94
2018-12-19T01:40:33.198Z,100510.76
2018-12-19T01:43:00.436Z,100506.39
2018-12-19T01:45:27.680Z,100517.68
2018-12-19T01:47:55.242Z,100528.90
2018-12-19T01:50:22.464Z,100526.73
2018-12-19T01:52:49.732Z,100522.04
2018-12-19T01:55:16.971Z,100499.59
2018-12-19T01:57:44.226Z,100498.73
2018-12-19T02:00:11.464Z,100487.09
2018-12-19T02:02:38.721Z,100481.45
2018-12-19T02:05:06.103Z,100485.35
2018-12-19T02:07:33.367Z,100484.53
2018-12-19T02:10:00.710Z,100475.91
2018-12-19T02:12:27.993Z,100462.12
2018-12-19T02:14:55.335Z,100460.42
2018-12-19T02:17:22.608Z,100450.90
2018-12-19T02:19:49.820Z,100463.80
2018-12-19T02:22:17.084Z,100465.58
2018-12-19T02:24:44.308Z,100445.80
2018-12-19T02:27:11.555Z,100439.24
2018-12-19T02:29:38.782Z,100434.54
2018-12-19T02:32:08.414Z,100450.51
2018-12-19T02:34:35.876Z,100447.89
2018-12-19T02:37:03.169Z,100432.34
2018-12-19T02:39:36.158Z,100442.70
2018-12-19T02:41:59.707Z,100440.05
2018-12-19T02:44:26.928Z,100439.67
2018-12-19T02:46:54.185Z,100439.17
2018-12-19T02:49:21.421Z,100432.33
2018-12-19T02:51:48.678Z,100440.54
2018-12-19T02:54:15.914Z,100441.31
2018-12-19T02:56:43.170Z,100445.61
2018-12-19T02:59:10.425Z,100450.78
2018-12-19T03:01:37.673Z,100450.37
2018-12-19T03:04:04.943Z,100458.96
2018-12-19T03:06:32.180Z,100455.55
2018-12-19T03:08:59.401Z,100470.72
2018-12-19T03:11:26.664Z,100471.11
2018-12-19T03:13:55.917Z,100470.72
2018-12-19T03:16:23.376Z,100477.20
2018-12-19T03:18:50.856Z,100472.87
2018-12-19T03:21:18.076Z,100472.50
2018-12-19T03:23:45.333Z,100474.67
2018-12-19T03:26:12.578Z,100482.02
2018-12-19T03:28:39.836Z,100476.41
2018-12-19T03:31:07.178Z,100474.15
2018-12-19T03:33:35.219Z,100472.87
2018-12-19T03:36:02.453Z,100464.66
2018-12-19T03:38:29.709Z,100463.34
2018-12-19T03:40:56.948Z,100463.31
2018-12-19T03:43:24.187Z,100470.25
2018-12-19T03:45:51.411Z,100458.05
2018-12-19T03:48:24.389Z,100473.23
2018-12-19T03:50:51.755Z,100470.72
2018-12-19T03:53:18.990Z,100467.63
2018-12-19T03:55:46.183Z,100465.81
2018-12-19T03:58:13.425Z,100459.80
2018-12-19T04:00:40.660Z,100451.13
2018-12-19T04:03:07.885Z,100478.88
2018-12-19T04:05:35.161Z,100490.12
2018-12-19T04:08:02.570Z,100476.36
2018-12-19T04:10:29.869Z,100479.77
2018-12-19T04:12:57.119Z,100476.69
2018-12-19T04:15:24.314Z,100469.80
2018-12-19T04:17:51.544Z,100481.47
2018-12-19T04:20:19.106Z,100469.80
2018-12-19T04:22:46.361Z,100465.42
2018-12-19T04:25:13.573Z,100459.66
2018-12-19T04:27:40.813Z,100464.82
2018-12-19T04:30:08.275Z,100461.80
2018-12-19T04:32:35.977Z,100457.50
2018-12-19T04:35:03.428Z,100448.02
2018-12-19T04:37:30.752Z,100431.12
2018-12-19T04:40:05.147Z,100433.69
2018-12-19T04:42:27.284Z,100428.19
2018-12-19T04:44:54.489Z,100416.91
2018-12-19T04:47:21.699Z,100412.99
2018-12-19T04:49:48.942Z,100414.17
2018-12-19T04:52:16.259Z,100409.42
2018-12-19T04:54:43.494Z,100411.14
2018-12-19T04:57:10.726Z,100415.89
2018-12-19T04:59:37.960Z,100402.92
2018-12-19T05:02:05.189Z,100401.13
2018-12-19T05:04:32.417Z,100403.34
2018-12-19T05:06:59.692Z,100396.44
2018-12-19T05:09:26.948Z,100398.93
2018-12-19T05:11:54.187Z,100399.77
2018-12-19T05:14:21.739Z,100400.95
2018-12-19T05:16:48.951Z,100404.84
2018-12-19T05:19:16.164Z,100399.92
2018-12-19T05:21:43.376Z,100391.05
2018-12-19T05:24:10.599Z,100392.72
2018-12-19T05:26:37.803Z,100395.73
2018-12-19T05:29:05.060Z,100399.59
2018-12-19T05:31:32.273Z,100399.09
2018-12-19T05:33:59.482Z,100393.47
2018-12-19T05:36:26.683Z,100402.05
2018-12-19T05:38:53.920Z,100398.50
2018-12-19T05:41:21.153Z,100402.34
2018-12-19T05:43:48.358Z,100399.33
2018-12-19T05:46:15.600Z,100391.52
2018-12-19T05:48:42.837Z,100400.97
2018-12-19T05:51:10.066Z,100404.52
2018-12-19T05:53:37.305Z,100404.11
2018-12-19T05:56:04.537Z,100410.19
2018-12-19T05:58:31.747Z,100403.25
2018-12-19T06:00:58.992Z,100406.05
2018-12-19T06:03:26.205Z,100410.41
2018-12-19T06:05:53.463Z,100409.50
2018-12-19T06:08:20.696Z,100404.84
2018-12-19T06:10:47.927Z,100412.18
2018-12-19T06:13:15.130Z,100409.17
2018-12-19T06:15:42.369Z,100413.14
2018-12-19T06:18:09.565Z,100412.23
2018-12-19T06:20:36.801Z,100410.03
2018-12-19T06:23:04.041Z,100410.00
2018-12-19T06:25:31.259Z,100417.48
2018-12-19T06:27:58.477Z,100422.19
2018-12-19T06:30:26.137Z,100422.30
2018-12-19T06:32:53.476Z,100419.80
2018-12-19T06:35:20.764Z,100423.13
2018-12-19T06:37:47.954Z,100430.55
2018-12-19T06:40:15.196Z,100430.56
2018-12-19T06:42:42.549Z,100434.43
2018-12-19T06:45:09.783Z,100439.17
2018-12-19T06:47:37.012Z,100440.86
2018-12-19T06:50:05.639Z,100440.57
2018-12-19T06:52:32.848Z,100436.61
2018-12-19T06:55:00.051Z,100426.25
2018-12-19T06:57:27.544Z,100427.50
2018-12-19T06:59:54.728Z,100429.78
2018-12-19T07:02:22.031Z,100435.82
2018-12-19T07:04:49.238Z,100434.94
2018-12-19T07:07:16.463Z,100445.75
2018-12-19T07:09:43.767Z,100451.75
2018-12-19T07:12:11.172Z,100446.61
2018-12-19T07:14:40.706Z,100452.14
2018-12-19T07:17:08.228Z,100446.50
2018-12-19T07:19:35.445Z,100438.73
2018-12-19T07:22:02.815Z,100439.96
2018-12-19T07:24:30.089Z,100443.05
2018-12-19T07:26:57.330Z,100445.64
2018-12-19T07:29:26.159Z,100443.53
2018-12-19T07:31:53.401Z,100447.77
2018-12-19T07:34:20.632Z,100453.34
2018-12-19T07:36:47.874Z,100454.66
2018-12-19T07:39:21.947Z,100453.87
2018-12-19T07:41:49.196Z,100455.20
2018-12-19T07:44:16.880Z,100452.53
2018-12-19T07:46:44.468Z,100461.28
2018-12-19T07:49:11.708Z,100456.89
2018-12-19T07:51:39.301Z,100455.98
2018-12-19T07:54:06.525Z,100459.02
2018-12-19T07:56:33.829Z,100459.83
2018-12-19T07:59:01.085Z,100460.97
2018-12-19T08:01:28.304Z,100456.09
2018-12-19T08:03:55.528Z,100461.15
2018-12-19T08:06:22.756Z,100458.69
2018-12-19T08:08:50.008Z,100459.20
2018-12-19T08:11:17.232Z,100463.78
2018-12-19T08:13:44.465Z,100458.34
2018-12-19T08:16:11.707Z,100468.19
2018-12-19T08:18:38.993Z,100469.59
2018-12-19T08:21:06.204Z,100471.68
2018-12-19T08:23:33.435Z,100471.64
2018-12-19T08:26:00.641Z,100475.54
2018-12-19T08:28:27.910Z,100473.58
2018-12-19T08:30:55.122Z,100478.77
2018-12-19T08:33:22.420Z,100482.70
2018-12-19T08:35:49.809Z,100480.00
2018-12-19T08:38:18.158Z,100483.52
2018-12-19T08:40:45.390Z,100488.98
2018-12-19T08:43:12.635Z,100485.93
2018-12-19T08:45:40.275Z,100485.56
2018-12-19T08:48:07.479Z,100492.88
2018-12-19T08:50:34.689Z,100494.91
2018-12-19T08:53:01.915Z,100503.94
2018-12-19T08:55:29.181Z,100505.56
2018-12-19T08:57:56.448Z,100500.11
2018-12-19T09:00:24.223Z,100507.55
2018-12-19T09:02:51.665Z,100509.06
2018-12-19T09:05:18.872Z,100518.16
2018-12-19T09:07:46.267Z,100517.59
2018-12-19T09:10:13.538Z,100521.13
2018-12-19T09:12:40.744Z,100528.32
2018-12-19T09:15:08.133Z,100529.58
2018-12-19T09:17:35.887Z,100527.91
2018-12-19T09:20:03.891Z,100524.86
2018-12-19T09:22:31.183Z,100526.73
2018-12-19T09:24:58.459Z,100517.87
2018-12-19T09:27:25.708Z,100519.85
2018-12-19T09:29:52.937Z,100527.34
2018-12-19T09:32:20.172Z,100526.71
2018-12-19T09:34:47.397Z,100501.72
2018-12-19T09:37:14.634Z,100534.88
2018-12-19T09:39:41.869Z,100538.95
2018-12-19T09:42:09.094Z,100541.03
2018-12-19T09:44:36.353Z,100539.19
2018-12-19T09:47:03.580Z,100540.90
2018-12-19T09:49:30.814Z,100537.41
2018-12-19T09:51:58.075Z,100536.09
2018-12-19T09:54:25.415Z,100546.19
2018-12-19T09:56:53.470Z,100543.95
2018-12-19T09:59:20.893Z,100537.39
2018-12-19T10:01:48.141Z,100545.88
2018-12-19T10:04:15.401Z,100542.16
2018-12-19T10:06:42.604Z,100485.27
2018-12-19T10:09:14.780Z,100539.91
2018-12-19T10:11:39.271Z,100538.08
2018-12-19T10:14:06.661Z,100536.05
2018-12-19T10:16:33.880Z,100536.81
2018-12-19T10:19:01.133Z,100531.20
2018-12-19T10:21:28.723Z,100524.16
2018-12-19T10:23:55.975Z,100519.36
2018-12-19T10:26:23.308Z,100519.70
2018-12-19T10:28:50.584Z,100522.13
2018-12-19T10:31:18.006Z,100522.02
2018-12-19T10:33:45.512Z,100519.06
2018-12-19T10:36:12.751Z,100523.06
2018-12-19T10:38:39.937Z,100522.02
2018-12-19T10:41:07.426Z,100521.52
2018-12-19T10:43:34.641Z,100522.47
2018-12-19T10:46:01.877Z,100525.88
2018-12-19T10:48:29.068Z,100519.38
2018-12-19T10:50:56.523Z,100517.47
2018-12-19T10:53:23.730Z,100528.13
2018-12-19T10:55:50.998Z,100535.30
2018-12-19T10:58:18.201Z,100532.09
2018-12-19T11:00:51.161Z,100539.39
2018-12-19T11:03:18.461Z,100536.70
2018-12-19T11:05:45.711Z,100527.44
2018-12-19T11:08:12.922Z,100529.28
2018-12-19T11:10:41.157Z,100525.48
2018-12-19T11:13:08.470Z,100531.13
2018-12-19T11:15:35.738Z,100537.95
2018-12-19T11:18:02.978Z,100537.09
2018-12-19T11:20:30.216Z,100530.84
2018-12-19T11:22:57.456Z,100530.28
2018-12-19T11:25:24.668Z,100526.38
2018-12-19T11:27:51.972Z,100488.91
2018-12-19T11:30:19.278Z,100526.11
2018-12-19T11:32:46.521Z,100518.29
2018-12-19T11:35:13.792Z,100523.24
2018-12-19T11:37:41.040Z,100513.95
2018-12-19T11:40:08.754Z,100516.77
2018-12-19T11:42:36.040Z,100513.17
2018-12-19T11:45:04.070Z,100514.80
2018-12-19T11:47:31.332Z,100503.52
2018-12-19T11:49:58.561Z,100510.62
2018-12-19T11:52:25.829Z,100506.61
2018-12-19T11:54:53.060Z,100507.43
2018-12-19T11:57:20.325Z,100508.63
2018-12-19T11:59:47.550Z,100506.03
2018-12-19T12:02:14.796Z,100509.80
2018-12-19T12:04:42.006Z,100508.89
2018-12-19T12:07:09.673Z,100507.32
2018-12-19T12:09:36.996Z,100511.44
2018-12-19T12:12:04.234Z,100506.44
2018-12-19T12:14:31.455Z,100500.99
2018-12-19T12:16:58.760Z,100496.91
2018-12-19T12:19:26.136Z,100502.59
2018-12-19T12:21:53.370Z,100501.67
2018-12-19T12:24:20.603Z,100498.63
2018-12-19T12:26:47.826Z,100496.77
2018-12-19T12:29:15.075Z,100500.58
2018-12-19T12:31:42.322Z,100497.23
2018-12-19T12:34:09.610Z,100487.53
2018-12-19T12:36:36.885Z,100491.66
2018-12-19T12:39:06.817Z,100490.83
2018-12-19T12:41:34.033Z,100488.39
2018-12-19T12:44:01.285Z,100481.11
2018-12-19T12:46:28.510Z,100486.91
2018-12-19T12:48:55.905Z,100486.80
2018-12-19T12:51:23.140Z,100485.31
2018-12-19T12:53:50.403Z,100482.67
2018-12-19T12:56:17.640Z,100480.40
2018-12-19T12:58:44.901Z,100486.54
2018-12-19T13:01:12.213Z,100487.02
2018-12-19T13:03:39.565Z,100483.61
2018-12-19T13:06:07.014Z,100480.41
2018-12-19T13:08:34.298Z,100486.39
2018-12-19T13:11:01.605Z,100482.17
2018-12-19T13:13:28.961Z,100485.33
2018-12-19T13:15:56.244Z,100485.45
2018-12-19T13:18:23.512Z,100488.15
2018-12-19T13:20:50.734Z,100487.23
2018-12-19T13:23:18.154Z,100489.34
2018-12-19T13:25:45.401Z,100488.44
2018-12-19T13:28:16.186Z,100488.28
2018-12-19T13:30:43.546Z,100478.64
2018-12-19T13:33:10.970Z,100479.95
2018-12-19T13:35:38.280Z,100481.98
2018-12-19T13:38:05.630Z,100471.34
2018-12-19T13:40:32.984Z,100483.97
2018-12-19T13:43:00.195Z,100475.91
2018-12-19T13:45:27.527Z,100476.55
2018-12-19T13:47:54.783Z,100475.66
2018-12-19T13:50:22.105Z,100477.97
2018-12-19T13:52:49.374Z,100473.14
2018-12-19T13:55:16.621Z,100483.00
2018-12-19T13:57:43.828Z,100481.50
2018-12-19T14:00:11.364Z,100488.37
2018-12-19T14:02:38.666Z,100483.48
2018-12-19T14:05:06.099Z,100490.27
2018-12-19T14:07:33.337Z,100482.39
2018-12-19T14:10:00.724Z,100482.86
2018-12-19T14:12:28.000Z,100485.33
2018-12-19T14:14:55.240Z,100483.08
2018-12-19T14:17:22.625Z,100482.20
2018-12-19T14:19:49.888Z,100478.00
2018-12-19T14:22:17.280Z,100484.89
2018-12-19T14:24:44.539Z,100489.86
2018-12-19T14:27:11.840Z,100490.04
2018-12-19T14:29:39.116Z,100485.47
2018-12-19T14:32:06.339Z,100479.62
2018-12-19T14:34:33.727Z,100473.61
2018-12-19T14:37:00.945Z,100482.12
2018-12-19T14:39:28.253Z,100479.70
2018-12-19T14:41:55.633Z,100483.47
2018-12-19T14:44:22.919Z,100486.50
2018-12-19T14:46:50.194Z,100491.72
2018-12-19T14:49:17.856Z,100487.59
2018-12-19T14:51:45.110Z,100492.48
2018-12-19T14:54:12.461Z,100485.13
2018-12-19T14:56:39.779Z,100486.09
2018-12-19T14:59:07.032Z,100490.98
2018-12-19T15:01:34.316Z,100494.96
2018-12-19T15:04:01.656Z,100493.84
2018-12-19T15:06:28.978Z,100484.99
2018-12-19T15:08:56.369Z,100479.91
2018-12-19T15:11:23.636Z,100485.24
2018-12-19T15:13:51.021Z,100482.05
2018-12-19T15:16:22.535Z,100485.28
2018-12-19T15:18:51.800Z,100479.89
2018-12-19T15:21:20.440Z,100482.88
2018-12-19T15:23:48.228Z,100487.05
2018-12-19T15:26:16.057Z,100481.50
2018-12-19T15:28:43.859Z,100479.47
2018-12-19T15:31:11.220Z,100488.16
2018-12-19T15:33:38.496Z,100487.37
2018-12-19T15:36:07.144Z,100488.28
2018-12-19T15:38:35.121Z,100488.00
2018-12-19T15:41:02.646Z,100487.94
2018-12-19T15:43:30.433Z,100484.31
2018-12-19T15:45:57.752Z,100479.55
2018-12-19T15:48:25.429Z,100472.62
2018-12-19T15:50:52.774Z,100470.83
2018-12-19T15:53:20.050Z,100469.30
2018-12-19T15:55:47.416Z,100461.98
2018-12-19T15:58:14.743Z,100454.80
2018-12-19T16:00:43.726Z,100451.25
2018-12-19T16:03:12.397Z,100446.16
2018-12-19T16:05:41.458Z,100444.85
2018-12-19T16:08:10.235Z,100432.84
2018-12-19T16:10:39.063Z,100427.09
2018-12-19T16:13:07.850Z,100436.24
2018-12-19T16:15:36.238Z,100441.59
2018-12-19T16:18:05.189Z,100443.16
2018-12-19T16:20:34.469Z,100445.31
2018-12-19T16:23:03.260Z,100440.24
2018-12-19T16:25:31.858Z,100442.09
2018-12-19T16:28:00.537Z,100444.05
2018-12-19T16:30:28.158Z,100450.23
2018-12-19T16:32:57.322Z,100445.52
2018-12-19T16:35:26.370Z,100465.08
2018-12-19T16:37:55.283Z,100468.22
2018-12-19T16:40:23.904Z,100469.11
2018-12-19T16:42:53.227Z,100478.56
2018-12-19T16:45:20.530Z,100464.27
2018-12-19T16:47:47.775Z,100468.70
2018-12-19T16:50:14.981Z,100465.45
2018-12-19T16:52:42.253Z,100471.52
2018-12-19T16:55:09.713Z,100468.02
2018-12-19T16:57:36.938Z,100476.35
2018-12-19T17:00:05.224Z,100477.28
2018-12-19T17:02:32.672Z,100486.34
2018-12-19T17:04:59.943Z,100487.16
2018-12-19T17:07:27.177Z,100489.19
2018-12-19T17:09:54.388Z,100499.06
2018-12-19T17:12:21.645Z,100493.05
2018-12-19T17:14:48.876Z,100494.42
2018-12-19T17:17:16.204Z,100489.75
2018-12-19T17:19:43.415Z,100484.22
2018-12-19T17:22:10.804Z,100486.38
2018-12-19T17:24:40.250Z,100477.73
2018-12-19T17:27:07.629Z,100484.75
2018-12-19T17:29:35.077Z,100483.05
2018-12-19T17:32:02.473Z,100480.55
2018-12-19T17:34:29.765Z,100474.61
2018-12-19T17:36:56.987Z,100472.83
2018-12-19T17:39:24.210Z,100469.89
2018-12-19T17:41:51.496Z,100469.08
2018-12-19T17:44:18.770Z,100465.29
2018-12-19T17:46:46.026Z,100461.16
2018-12-19T17:49:13.404Z,100475.47
2018-12-19T17:51:40.662Z,100475.88
2018-12-19T17:54:07.968Z,100473.73
2018-12-19T17:56:35.317Z,100473.28
2018-12-19T17:59:02.923Z,100481.08
2018-12-19T18:01:30.273Z,100480.60
2018-12-19T18:03:57.516Z,100482.69
2018-12-19T18:06:24.729Z,100479.95
2018-12-19T18:08:52.041Z,100476.56
2018-12-19T18:11:19.253Z,100477.28
2018-12-19T18:13:46.629Z,100483.84
2018-12-19T18:16:14.159Z,100478.20
2018-12-19T18:18:41.391Z,100478.84
2018-12-19T18:21:08.616Z,100481.48
2018-12-19T18:23:35.889Z,100478.89
2018-12-19T18:26:03.397Z,100476.28
2018-12-19T18:28:30.624Z,100475.95
2018-12-19T18:30:57.844Z,100473.05
2018-12-19T18:33:25.097Z,100477.84
2018-12-19T18:35:52.350Z,100477.02
2018-12-19T18:38:19.654Z,100490.07
2018-12-19T18:40:46.951Z,100489.28
2018-12-19T18:43:14.188Z,100488.02
2018-12-19T18:45:41.545Z,100489.28
2018-12-19T18:48:08.833Z,100491.78
2018-12-19T18:50:36.201Z,100492.26
2018-12-19T18:53:03.504Z,100489.28
2018-12-19T18:55:30.715Z,100492.77
2018-12-19T18:57:57.915Z,100451.88
2018-12-19T19:00:31.293Z,100488.02
2018-12-19T19:02:58.633Z,100488.87
2018-12-19T19:05:26.133Z,100490.61
2018-12-19T19:07:53.410Z,100490.58
2018-12-19T19:10:20.660Z,100489.75
2018-12-19T19:12:48.151Z,100479.84
2018-12-19T19:15:15.407Z,100486.20
2018-12-19T19:17:42.753Z,100488.87
2018-12-19T19:20:10.068Z,100486.86
2018-12-19T19:22:37.317Z,100496.05
2018-12-19T19:25:04.824Z,100492.36
2018-12-19T19:27:32.043Z,100491.05
2018-12-19T19:29:59.361Z,100489.84
2018-12-19T19:32:26.605Z,100486.75
2018-12-19T19:34:53.858Z,100485.09
2018-12-19T19:37:21.102Z,100489.44
2018-12-19T19:39:48.363Z,100489.50
2018-12-19T19:42:15.626Z,100483.27
2018-12-19T19:44:42.873Z,100478.55
2018-12-19T19:47:10.113Z,100480.25
2018-12-19T19:49:37.429Z,100474.65
2018-12-19T19:52:04.675Z,100475.98
2018-12-19T19:54:31.909Z,100473.77
2018-12-19T19:56:59.133Z,100486.40
2018-12-19T19:59:26.388Z,100482.97
2018-12-19T20:01:53.693Z,100483.06
2018-12-19T20:04:21.144Z,100486.45
2018-12-19T20:06:48.391Z,100486.42
2018-12-19T20:09:15.680Z,100484.27
2018-12-19T20:11:42.937Z,100483.36
2018-12-19T20:14:10.213Z,100482.97
2018-12-19T20:16:43.174Z,100493.45
2018-12-19T20:19:10.405Z,100492.13
2018-12-19T20:21:37.663Z,100490.91
2018-12-19T20:24:05.025Z,100488.70
2018-12-19T20:26:32.276Z,100490.44
2018-12-19T20:28:59.493Z,100489.20
2018-12-19T20:31:26.773Z,100492.20
2018-12-19T20:33:54.012Z,100488.25
2018-12-19T20:36:21.254Z,100490.88
2018-12-19T20:38:48.579Z,100483.00
2018-12-19T20:41:22.602Z,100483.42
2018-12-19T20:43:49.904Z,100489.44
2018-12-19T20:46:17.193Z,100490.83
2018-12-19T20:48:44.432Z,100497.81
2018-12-19T20:51:11.880Z,100484.80
2018-12-19T20:53:39.144Z,100485.75
2018-12-19T20:56:06.496Z,100485.30
2018-12-19T20:58:33.818Z,100487.10
2018-12-19T21:01:01.196Z,100486.45
2018-12-19T21:03:28.425Z,100489.75
2018-12-19T21:05:55.796Z,100485.60
2018-12-19T21:08:23.075Z,100483.95
2018-12-19T21:10:50.401Z,100487.81
2018-12-19T21:13:17.687Z,100492.23
2018-12-19T21:15:45.012Z,100491.80
2018-12-19T21:18:18.084Z,100486.40
2018-12-19T21:20:45.349Z,100486.81
2018-12-19T21:23:12.620Z,100476.48
2018-12-19T21:25:39.829Z,100474.77
2018-12-19T21:28:07.075Z,100480.88
2018-12-19T21:30:34.407Z,100476.69
2018-12-19T21:33:01.651Z,100474.89
2018-12-19T21:35:28.860Z,100467.63
2018-12-19T21:37:56.151Z,100467.58
2018-12-19T21:40:23.612Z,100464.59
2018-12-19T21:42:51.021Z,100461.97
2018-12-19T21:45:18.265Z,100421.56
2018-12-19T21:47:45.582Z,100462.36
2018-12-19T21:50:13.067Z,100459.79
2018-12-19T21:52:40.572Z,100465.09
2018-12-19T21:55:07.872Z,100460.81
2018-12-19T21:57:35.125Z,100468.63
2018-12-19T22:00:02.844Z,100467.77
2018-12-19T22:02:30.235Z,100462.50
2018-12-19T22:04:57.860Z,100465.13
2018-12-19T22:07:25.311Z,100472.02
2018-12-19T22:09:52.919Z,100468.16
2018-12-19T22:12:20.256Z,100470.70
2018-12-19T22:14:47.582Z,100478.52
2018-12-19T22:17:20.627Z,100471.20
2018-12-19T22:19:47.975Z,100471.59
2018-12-19T22:22:15.237Z,100471.17
2018-12-19T22:24:42.453Z,100471.64
2018-12-19T22:27:09.815Z,100478.88
2018-12-19T22:29:37.135Z,100483.31
2018-12-19T22:32:04.567Z,100474.62
2018-12-19T22:34:31.890Z,100478.18
2018-12-19T22:36:59.460Z,100463.98
2018-12-19T22:39:26.693Z,100473.81
2018-12-19T22:41:54.041Z,100469.48
2018-12-19T22:44:21.344Z,100460.95
2018-12-19T22:46:48.636Z,100467.90
2018-12-19T22:49:15.949Z,100453.53
2018-12-19T22:51:43.692Z,100456.62
2018-12-19T22:54:11.148Z,100451.84
2018-12-19T22:56:38.622Z,100445.27
2018-12-19T22:59:06.253Z,100451.73
2018-12-19T23:01:39.918Z,100458.72
2018-12-19T23:04:07.449Z,100454.00
2018-12-19T23:06:35.615Z,100457.03
2018-12-19T23:09:06.048Z,100449.72
2018-12-19T23:11:33.404Z,100457.03
2018-12-19T23:14:00.693Z,100453.12
2018-12-19T23:16:28.026Z,100454.41
2018-12-19T23:18:55.680Z,100451.81
2018-12-19T23:21:23.420Z,100453.97
2018-12-19T23:23:50.704Z,100452.70
2018-12-19T23:26:25.927Z,100450.85
2018-12-19T23:28:57.993Z,100449.20
2018-12-19T23:31:25.305Z,100448.39
2018-12-19T23:33:52.561Z,100444.53
2018-12-19T23:36:19.894Z,100447.13
2018-12-19T23:38:47.294Z,100448.42
2018-12-19T23:41:14.560Z,100447.92
2018-12-19T23:43:41.865Z,100441.83
2018-12-19T23:46:09.140Z,100443.50
2018-12-19T23:48:36.434Z,100434.80
2018-12-19T23:51:03.910Z,100433.89
2018-12-19T23:53:31.298Z,100434.80
2018-12-19T23:55:58.605Z,100436.16
2018-12-19T23:58:25.845Z,100436.14
